Time;durP1;ratioP1;P1;durP2;ratioP2;P2;SDS_P1;SDS_P2;PMS_P1;PMS_P2;Temp;Humidity;BMP_temperature;BMP_pressure;BME280_temperature;BME280_humidity;BME280_pressure;Samples;Min_cycle;Max_cycle;Signal;HPM_P1;HPM_P2
2020/12/23 00:00:20;;;;;;;1.52;1.38;;;11.80;99.90;;;;;;5000840;28;20505;-68
2020/12/23 00:02:46;;;;;;;1.75;1.40;;;11.70;99.90;;;;;;5001636;28;20627;-68
2020/12/23 00:05:15;;;;;;;1.20;1.10;;;11.70;99.90;;;;;;5002182;28;20214;-68
2020/12/23 00:07:42;;;;;;;1.50;1.30;;;11.70;99.90;;;;;;5001457;28;20696;-69
2020/12/23 00:10:09;;;;;;;2.60;1.30;;;11.70;99.90;;;;;;5002458;28;20245;-68
2020/12/23 00:12:36;;;;;;;1.30;1.20;;;11.80;99.90;;;;;;5001681;28;20265;-69
2020/12/23 00:15:06;;;;;;;1.10;1.00;;;11.80;99.90;;;;;;5001805;28;20645;-68
2020/12/23 00:17:32;;;;;;;1.38;1.20;;;11.80;99.90;;;;;;5001830;28;20203;-68
2020/12/23 00:19:58;;;;;;;2.33;1.52;;;11.90;99.90;;;;;;5001472;28;20790;-68
2020/12/23 00:22:25;;;;;;;1.55;1.45;;;11.90;99.90;;;;;;5001383;28;20210;-69
2020/12/23 00:24:51;;;;;;;1.25;1.15;;;11.90;99.90;;;;;;5001091;28;20236;-68
2020/12/23 00:27:19;;;;;;;2.17;1.40;;;12.00;99.90;;;;;;5001176;28;20601;-68
2020/12/23 00:29:49;;;;;;;2.25;1.30;;;12.10;99.90;;;;;;5001293;28;20210;-68
2020/12/23 00:32:17;;;;;;;1.60;1.10;;;12.20;99.90;;;;;;5000882;28;20883;-68
2020/12/23 00:34:43;;;;;;;2.08;1.27;;;12.20;99.90;;;;;;5002101;28;20210;-69
2020/12/23 00:37:10;;;;;;;1.88;1.08;;;12.30;99.90;;;;;;5001025;28;20272;-69
2020/12/23 00:39:37;;;;;;;1.52;1.13;;;12.20;99.90;;;;;;5000887;28;20477;-68
2020/12/23 00:42:04;;;;;;;1.50;1.10;;;12.30;99.90;;;;;;4998011;28;20202;-67
2020/12/23 00:44:30;;;;;;;1.30;1.08;;;12.30;99.90;;;;;;4985068;28;20238;-69
2020/12/23 00:46:56;;;;;;;1.60;1.20;;;12.30;99.90;;;;;;4986143;28;20230;-68
2020/12/23 00:49:23;;;;;;;1.15;1.05;;;12.30;99.90;;;;;;4985368;28;20226;-69
2020/12/23 00:51:50;;;;;;;1.73;1.00;;;12.30;99.90;;;;;;4986984;28;20265;-68
2020/12/23 00:54:17;;;;;;;1.50;1.33;;;12.40;99.90;;;;;;4987670;28;20587;-69
2020/12/23 00:56:43;;;;;;;1.15;1.05;;;12.40;99.90;;;;;;4987485;28;20206;-68
2020/12/23 00:59:09;;;;;;;1.38;1.20;;;12.40;99.90;;;;;;4988180;28;20695;-69
2020/12/23 01:01:35;;;;;;;1.08;0.98;;;12.40;99.90;;;;;;4986894;28;20618;-69
2020/12/23 01:04:02;;;;;;;1.20;1.10;;;12.30;99.90;;;;;;4987158;28;20273;-69
2020/12/23 01:06:29;;;;;;;1.58;1.40;;;12.30;99.90;;;;;;4987511;28;20219;-69
2020/12/23 01:08:55;;;;;;;1.10;1.00;;;12.30;99.90;;;;;;4987413;28;20207;-69
2020/12/23 01:11:22;;;;;;;1.17;1.08;;;12.40;99.90;;;;;;5000028;28;20280;-69
2020/12/23 01:13:48;;;;;;;0.80;0.80;;;12.40;99.90;;;;;;5006410;28;20284;-69
2020/12/23 01:18:42;;;;;;;1.40;1.30;;;12.40;99.90;;;;;;4988187;28;20258;-77
2020/12/23 01:21:08;;;;;;;1.58;1.20;;;12.40;99.90;;;;;;4991857;28;20861;-78
2020/12/23 01:23:35;;;;;;;1.50;1.15;;;12.50;99.90;;;;;;4980368;28;20227;-79
2020/12/23 01:26:01;;;;;;;1.00;0.90;;;12.50;99.90;;;;;;4972613;28;20204;-78
2020/12/23 01:28:28;;;;;;;1.00;0.80;;;12.50;99.90;;;;;;4971671;28;20211;-78
2020/12/23 01:30:54;;;;;;;1.50;0.90;;;12.50;99.90;;;;;;4972692;28;20208;-79
2020/12/23 01:33:20;;;;;;;1.70;0.95;;;12.50;99.90;;;;;;4972477;28;20251;-79
2020/12/23 01:35:46;;;;;;;1.00;0.90;;;12.60;99.90;;;;;;4972242;28;20217;-78
2020/12/23 01:38:12;;;;;;;1.13;1.02;;;12.60;99.90;;;;;;4972065;28;20200;-78
2020/12/23 01:40:39;;;;;;;1.10;1.00;;;12.60;99.90;;;;;;4971272;28;20204;-78
2020/12/23 01:43:07;;;;;;;1.38;0.98;;;12.60;99.90;;;;;;4971631;28;20642;-78
2020/12/23 01:45:34;;;;;;;1.00;0.90;;;12.60;99.90;;;;;;4971960;28;20270;-78
2020/12/23 01:48:00;;;;;;;1.88;1.10;;;12.60;99.90;;;;;;4972172;28;20219;-78
2020/12/23 01:50:26;;;;;;;1.42;0.90;;;12.60;99.90;;;;;;4971166;28;20251;-78
2020/12/23 01:52:54;;;;;;;1.40;1.00;;;12.60;99.90;;;;;;4971355;28;20565;-79
2020/12/23 01:55:20;;;;;;;1.15;1.00;;;12.70;99.90;;;;;;4971780;28;20234;-78
2020/12/23 01:57:47;;;;;;;0.90;0.80;;;12.80;99.90;;;;;;4971599;28;20214;-78
2020/12/23 02:00:13;;;;;;;1.00;0.85;;;12.90;99.90;;;;;;4971810;28;20206;-78
2020/12/23 02:02:42;;;;;;;1.08;0.98;;;12.90;99.90;;;;;;4970924;28;20227;-78
2020/12/23 02:05:10;;;;;;;1.20;0.80;;;13.00;99.90;;;;;;4971738;28;20212;-78
2020/12/23 02:07:36;;;;;;;1.10;0.90;;;13.00;99.90;;;;;;4971133;28;20448;-77
2020/12/23 02:10:05;;;;;;;1.10;0.80;;;13.10;99.90;;;;;;4971894;28;20578;-78
2020/12/23 02:12:32;;;;;;;0.93;0.82;;;13.10;99.90;;;;;;4971548;28;20585;-78
2020/12/23 02:15:08;;;;;;;1.42;0.93;;;13.10;99.90;;;;;;4970828;28;20212;-77
2020/12/23 02:17:34;;;;;;;1.65;1.40;;;13.10;99.90;;;;;;4970451;28;20207;-78
2020/12/23 02:20:00;;;;;;;0.80;0.80;;;13.10;99.90;;;;;;4972630;28;20261;-78
2020/12/23 02:22:28;;;;;;;1.80;1.33;;;13.10;99.90;;;;;;4972286;28;20561;-77
2020/12/23 02:24:55;;;;;;;2.28;0.88;;;13.10;99.90;;;;;;4972195;28;20204;-78
2020/12/23 02:27:22;;;;;;;1.80;1.00;;;13.10;99.90;;;;;;4972079;28;20232;-78
2020/12/23 02:29:50;;;;;;;1.00;0.90;;;13.10;99.90;;;;;;4972196;28;20211;-78
2020/12/23 02:32:17;;;;;;;1.10;0.90;;;13.10;99.90;;;;;;4971530;28;20433;-78
2020/12/23 02:34:43;;;;;;;1.33;1.00;;;13.10;99.90;;;;;;4971721;28;20248;-78
2020/12/23 02:37:10;;;;;;;1.23;1.13;;;13.00;99.90;;;;;;4972149;28;20200;-78
2020/12/23 02:39:38;;;;;;;1.48;1.00;;;13.00;99.90;;;;;;4972920;28;20221;-77
2020/12/23 02:42:06;;;;;;;1.10;1.00;;;13.10;99.90;;;;;;4971806;28;20204;-78
2020/12/23 02:44:32;;;;;;;1.20;0.90;;;13.00;99.90;;;;;;4972080;28;20227;-78
2020/12/23 02:47:01;;;;;;;1.10;1.00;;;13.00;99.90;;;;;;4971170;28;20223;-78
2020/12/23 02:49:28;;;;;;;1.70;0.80;;;13.00;99.90;;;;;;4971654;28;20206;-79
2020/12/23 02:51:56;;;;;;;1.10;0.90;;;13.00;99.90;;;;;;4969861;28;20602;-79
2020/12/23 02:54:23;;;;;;;1.02;0.90;;;13.00;99.90;;;;;;4970405;28;20231;-77
2020/12/23 02:56:50;;;;;;;1.13;1.02;;;13.00;99.90;;;;;;4970894;28;20206;-79
2020/12/23 02:59:17;;;;;;;1.10;1.00;;;13.00;99.90;;;;;;4970774;28;20219;-79
2020/12/23 03:01:44;;;;;;;0.88;0.77;;;13.00;99.90;;;;;;4969548;28;20524;-77
2020/12/23 03:04:10;;;;;;;1.10;1.00;;;13.00;99.90;;;;;;4970947;28;20228;-77
2020/12/23 03:06:37;;;;;;;1.00;0.90;;;13.10;99.90;;;;;;4969866;28;20235;-78
2020/12/23 03:09:05;;;;;;;1.17;0.90;;;13.10;99.90;;;;;;4971072;28;20246;-79
2020/12/23 03:11:31;;;;;;;0.98;0.88;;;13.00;99.90;;;;;;4970236;28;20211;-78
2020/12/23 03:13:59;;;;;;;1.50;1.00;;;13.00;99.90;;;;;;4970597;28;20231;-78
2020/12/23 03:16:25;;;;;;;1.92;1.00;;;13.00;99.90;;;;;;4970454;28;20230;-77
2020/12/23 03:18:52;;;;;;;1.00;0.90;;;13.00;99.90;;;;;;4970595;28;20214;-78
2020/12/23 03:21:18;;;;;;;1.25;1.00;;;13.00;99.90;;;;;;4970813;28;20215;-77
2020/12/23 03:23:44;;;;;;;3.05;0.90;;;13.00;99.90;;;;;;4970289;28;20273;-76
2020/12/23 03:26:11;;;;;;;2.75;1.10;;;13.00;99.90;;;;;;4970708;28;20223;-77
2020/12/23 03:28:37;;;;;;;1.35;1.00;;;13.00;99.90;;;;;;4972283;28;20206;-77
2020/12/23 03:31:05;;;;;;;0.93;0.82;;;13.00;99.90;;;;;;4969156;28;20258;-77
2020/12/23 03:33:31;;;;;;;1.00;0.90;;;13.00;99.90;;;;;;4969667;28;20274;-77
2020/12/23 03:35:58;;;;;;;1.10;1.00;;;13.00;99.90;;;;;;4970163;28;20199;-77
2020/12/23 03:38:25;;;;;;;1.20;1.00;;;13.00;99.90;;;;;;4969963;28;20226;-77
2020/12/23 03:40:51;;;;;;;0.98;0.88;;;12.90;99.90;;;;;;4969991;28;20211;-78
2020/12/23 03:43:18;;;;;;;0.93;0.82;;;12.90;99.90;;;;;;4969460;28;20578;-78
2020/12/23 03:45:44;;;;;;;1.15;1.00;;;12.90;99.90;;;;;;4969672;28;20483;-77
2020/12/23 03:48:12;;;;;;;2.75;1.20;;;12.90;99.90;;;;;;4969998;28;20313;-77
2020/12/23 03:50:38;;;;;;;1.40;1.20;;;12.90;99.90;;;;;;4969599;28;20211;-77
2020/12/23 03:53:04;;;;;;;0.90;0.80;;;12.90;99.90;;;;;;4969357;28;20234;-77
2020/12/23 03:55:31;;;;;;;1.05;0.95;;;12.90;99.90;;;;;;4969112;28;20212;-77
2020/12/23 03:57:57;;;;;;;1.00;0.80;;;13.00;99.90;;;;;;4969708;28;20229;-77
2020/12/23 04:00:23;;;;;;;2.00;1.10;;;12.90;99.90;;;;;;4973747;28;20211;-78
2020/12/23 04:02:49;;;;;;;1.30;1.20;;;12.90;99.90;;;;;;4988374;28;20223;-77
2020/12/23 04:05:16;;;;;;;1.20;1.00;;;12.90;99.90;;;;;;4989198;28;20270;-77
2020/12/23 04:07:43;;;;;;;1.30;1.10;;;12.90;99.90;;;;;;4988956;28;20227;-78
2020/12/23 04:10:10;;;;;;;1.33;1.23;;;13.00;99.90;;;;;;4989503;28;20280;-78
2020/12/23 04:12:36;;;;;;;0.95;0.85;;;13.00;99.90;;;;;;4988505;28;20277;-78
2020/12/23 04:15:04;;;;;;;1.00;0.90;;;13.00;99.90;;;;;;4989097;28;20207;-77
2020/12/23 04:17:31;;;;;;;1.00;0.80;;;13.00;99.90;;;;;;4988783;28;20211;-77
2020/12/23 04:19:57;;;;;;;1.05;0.90;;;13.00;99.90;;;;;;4992141;28;20214;-77
2020/12/23 04:22:28;;;;;;;1.30;1.08;;;13.10;99.90;;;;;;4992298;28;20210;-77
2020/12/23 04:24:55;;;;;;;1.50;1.30;;;13.10;99.90;;;;;;4992948;28;20655;-77
2020/12/23 04:27:22;;;;;;;1.13;1.02;;;13.10;99.90;;;;;;4992567;28;20226;-77
2020/12/23 04:29:48;;;;;;;1.33;0.95;;;13.10;99.90;;;;;;4992815;28;20211;-77
2020/12/23 04:32:14;;;;;;;1.25;1.00;;;13.10;99.90;;;;;;4973065;28;20212;-76
2020/12/23 04:34:40;;;;;;;1.15;1.05;;;13.10;99.90;;;;;;4972762;28;20204;-76
2020/12/23 04:37:07;;;;;;;1.35;1.10;;;13.00;99.90;;;;;;4973006;28;20730;-76
2020/12/23 04:39:34;;;;;;;1.20;1.10;;;13.00;99.90;;;;;;4972229;28;20208;-76
2020/12/23 04:42:00;;;;;;;1.00;0.90;;;13.00;99.90;;;;;;4972315;28;20207;-77
2020/12/23 04:44:27;;;;;;;1.13;1.02;;;13.00;99.90;;;;;;4972941;28;20316;-76
2020/12/23 04:46:56;;;;;;;1.30;1.00;;;13.00;99.90;;;;;;4973759;28;20224;-77
2020/12/23 04:49:23;;;;;;;1.15;1.00;;;12.90;99.90;;;;;;4973218;28;20231;-77
2020/12/23 04:51:53;;;;;;;0.90;0.80;;;13.00;99.90;;;;;;4972938;28;20215;-77
2020/12/23 04:54:20;;;;;;;1.50;0.90;;;12.90;99.90;;;;;;4973165;28;20247;-77
2020/12/23 04:56:48;;;;;;;1.67;1.23;;;12.90;99.90;;;;;;4972649;28;20196;-77
2020/12/23 04:59:14;;;;;;;0.90;0.80;;;12.80;99.90;;;;;;4973687;28;20682;-77
2020/12/23 05:01:41;;;;;;;1.20;1.00;;;12.70;99.90;;;;;;4986052;28;20203;-76
2020/12/23 05:04:07;;;;;;;1.00;0.90;;;12.70;99.90;;;;;;4992473;28;20227;-77
2020/12/23 05:06:36;;;;;;;1.52;1.00;;;12.60;99.90;;;;;;4992299;28;20346;-78
2020/12/23 05:09:04;;;;;;;1.48;1.25;;;12.50;99.90;;;;;;4992800;28;20203;-77
2020/12/23 05:11:33;;;;;;;2.58;0.98;;;12.50;99.90;;;;;;4992961;28;20694;-78
2020/12/23 05:14:04;;;;;;;1.95;1.00;;;12.50;99.90;;;;;;4993904;28;20238;-79
2020/12/23 05:16:32;;;;;;;1.40;1.17;;;12.50;99.90;;;;;;4994995;28;20273;-78
2020/12/23 05:18:59;;;;;;;1.25;0.93;;;12.50;99.90;;;;;;4989833;28;20582;-77
2020/12/23 05:21:27;;;;;;;1.42;1.10;;;12.40;99.90;;;;;;4958297;28;20224;-77
2020/12/23 05:23:55;;;;;;;1.33;1.00;;;12.40;99.90;;;;;;4963778;28;20216;-77
2020/12/23 05:26:22;;;;;;;1.00;0.90;;;12.40;99.90;;;;;;4954180;28;20201;-76
2020/12/23 05:28:50;;;;;;;1.13;1.00;;;12.40;99.90;;;;;;4953629;28;20206;-76
2020/12/23 05:31:19;;;;;;;1.42;1.10;;;12.40;99.90;;;;;;4962597;28;20913;-77
2020/12/23 05:33:47;;;;;;;1.13;0.95;;;12.40;99.90;;;;;;4972137;28;20224;-78
2020/12/23 05:36:15;;;;;;;1.17;1.08;;;12.40;99.90;;;;;;4975263;28;20204;-78
2020/12/23 05:38:42;;;;;;;1.00;0.90;;;12.40;99.90;;;;;;4976621;28;20207;-77
2020/12/23 05:41:13;;;;;;;2.38;1.27;;;12.40;99.90;;;;;;4972802;28;20227;-77
2020/12/23 05:43:40;;;;;;;1.63;0.95;;;12.40;99.90;;;;;;4972015;28;20599;-77
2020/12/23 05:46:08;;;;;;;1.00;0.90;;;12.40;99.90;;;;;;4972202;28;20200;-77
2020/12/23 05:48:36;;;;;;;1.10;1.00;;;12.40;99.90;;;;;;4972593;28;20227;-77
2020/12/23 05:51:04;;;;;;;1.08;0.98;;;12.40;99.90;;;;;;4972953;28;20204;-77
2020/12/23 05:53:33;;;;;;;1.33;1.02;;;12.50;99.90;;;;;;4971605;28;20230;-78
2020/12/23 05:56:00;;;;;;;1.08;0.98;;;12.40;99.90;;;;;;4972687;28;20200;-76
2020/12/23 05:58:28;;;;;;;1.00;0.90;;;12.50;99.90;;;;;;4972093;28;20204;-77
2020/12/23 06:00:55;;;;;;;1.95;1.10;;;12.50;99.90;;;;;;4972378;28;20282;-77
2020/12/23 06:03:23;;;;;;;1.05;0.95;;;12.50;99.90;;;;;;4972574;28;20228;-77
2020/12/23 06:05:59;;;;;;;0.93;0.88;;;12.50;99.90;;;;;;4972226;28;20207;-76
2020/12/23 06:08:33;;;;;;;1.25;1.08;;;12.50;99.90;;;;;;4971603;28;20258;-76
2020/12/23 06:11:31;;;;;;;1.00;0.80;;;12.40;99.90;;;;;;4971394;28;20212;-77
2020/12/23 06:14:25;;;;;;;1.08;0.98;;;12.40;99.90;;;;;;4972000;28;20232;-77
2020/12/23 06:17:03;;;;;;;1.50;1.20;;;12.30;99.90;;;;;;4936699;28;20208;-75
2020/12/23 06:19:30;;;;;;;0.95;0.85;;;12.30;99.90;;;;;;4971121;28;20215;-76
2020/12/23 06:21:58;;;;;;;1.75;1.00;;;12.30;99.90;;;;;;4966706;28;20207;-76
2020/12/23 06:24:25;;;;;;;1.00;0.90;;;12.30;99.90;;;;;;4951330;28;20279;-76
2020/12/23 06:26:54;;;;;;;1.40;0.95;;;12.30;99.90;;;;;;4952104;28;20231;-76
2020/12/23 06:29:22;;;;;;;1.73;1.00;;;12.30;99.90;;;;;;4951854;28;20676;-76
2020/12/23 06:31:51;;;;;;;1.20;1.10;;;12.20;99.90;;;;;;4950811;28;20635;-76
2020/12/23 06:34:20;;;;;;;1.27;1.02;;;12.20;99.90;;;;;;4951851;28;20239;-76
2020/12/23 06:36:48;;;;;;;1.00;0.90;;;12.20;99.90;;;;;;4951246;28;20704;-76
2020/12/23 06:39:40;;;;;;;1.23;0.90;;;12.20;99.90;;;;;;4951695;28;20215;-76
2020/12/23 06:42:33;;;;;;;1.20;1.00;;;12.20;99.90;;;;;;4965372;28;20207;-76
2020/12/23 06:45:17;;;;;;;1.42;1.00;;;12.20;99.90;;;;;;4970777;28;20207;-76
2020/12/23 06:47:43;;;;;;;1.77;1.10;;;12.20;99.90;;;;;;4970150;28;20226;-76
2020/12/23 06:50:29;;;;;;;1.13;1.02;;;12.20;99.90;;;;;;4970605;28;20204;-76
2020/12/23 06:52:56;;;;;;;1.38;1.00;;;12.20;99.90;;;;;;4967879;28;20738;-76
2020/12/23 06:55:44;;;;;;;2.78;1.00;;;12.20;99.90;;;;;;4970925;28;20211;-77
2020/12/23 06:58:10;;;;;;;1.20;1.10;;;12.30;99.90;;;;;;4970876;28;20207;-76
2020/12/23 07:00:40;;;;;;;1.13;0.90;;;12.20;99.90;;;;;;4970047;28;20255;-76
2020/12/23 07:03:11;;;;;;;1.35;1.25;;;12.20;99.90;;;;;;4970634;28;20312;-76
2020/12/23 07:05:42;;;;;;;1.10;0.95;;;12.20;99.90;;;;;;4970930;28;20208;-76
2020/12/23 07:08:10;;;;;;;1.10;1.00;;;12.20;99.90;;;;;;4971071;28;20224;-76
2020/12/23 07:10:39;;;;;;;1.40;1.30;;;12.30;99.90;;;;;;4970515;28;20212;-76
2020/12/23 07:13:07;;;;;;;1.23;1.13;;;12.20;99.90;;;;;;4970293;28;20224;-77
2020/12/23 07:15:34;;;;;;;1.13;1.02;;;12.20;99.90;;;;;;4970525;28;20602;-79
2020/12/23 07:24:37;;;;;;;1.40;1.25;;;12.20;99.90;;;;;;4980848;28;20458;-93
2020/12/23 07:27:16;;;;;;;1.30;1.20;;;12.30;99.90;;;;;;5043448;28;20217;-93
2020/12/23 07:29:56;;;;;;;1.50;1.30;;;12.30;99.90;;;;;;5042707;28;20260;-93
2020/12/23 07:32:24;;;;;;;1.48;1.13;;;12.30;99.90;;;;;;5022997;23;20680;-76
2020/12/23 07:34:50;;;;;;;1.35;1.25;;;12.30;99.90;;;;;;4970675;28;20271;-76
2020/12/23 07:37:17;;;;;;;1.20;1.00;;;12.30;99.90;;;;;;4970202;28;20212;-76
2020/12/23 07:39:48;;;;;;;3.65;1.30;;;12.30;99.90;;;;;;4969559;28;20208;-76
2020/12/23 07:42:18;;;;;;;1.40;1.30;;;12.30;99.90;;;;;;4969983;28;20199;-77
2020/12/23 07:44:49;;;;;;;1.00;0.90;;;12.30;99.90;;;;;;4970102;28;20285;-76
2020/12/23 07:47:21;;;;;;;1.30;1.13;;;12.30;99.90;;;;;;4970152;28;20228;-77
2020/12/23 07:49:58;;;;;;;2.28;1.92;;;12.40;99.90;;;;;;4970666;28;20232;-77
2020/12/23 07:52:24;;;;;;;1.35;1.17;;;12.30;99.90;;;;;;4968991;28;20199;-77
2020/12/23 07:54:51;;;;;;;1.65;1.20;;;12.30;99.90;;;;;;4969740;28;20208;-76
2020/12/23 07:57:29;;;;;;;1.10;1.00;;;12.30;99.90;;;;;;4968781;28;20227;-76
2020/12/23 08:00:00;;;;;;;1.20;1.10;;;12.30;99.90;;;;;;4969674;28;20681;-77
2020/12/23 08:02:28;;;;;;;1.73;1.23;;;12.30;99.90;;;;;;4968837;28;20212;-77
2020/12/23 08:04:54;;;;;;;1.30;1.10;;;12.30;99.90;;;;;;4969995;28;20208;-76
2020/12/23 08:07:24;;;;;;;1.10;1.00;;;12.30;99.90;;;;;;4969265;28;20230;-76
2020/12/23 08:09:50;;;;;;;1.20;1.10;;;12.30;99.90;;;;;;4970176;28;20231;-77
2020/12/23 08:12:20;;;;;;;1.20;1.10;;;12.30;99.90;;;;;;4969550;28;20218;-77
2020/12/23 08:14:48;;;;;;;1.90;1.08;;;12.30;99.90;;;;;;4969927;28;20207;-76
2020/12/23 08:17:21;;;;;;;1.15;1.00;;;12.30;99.90;;;;;;4949661;28;20204;-77
2020/12/23 08:20:01;;;;;;;1.10;1.00;;;12.40;99.90;;;;;;4950961;28;20219;-76
2020/12/23 08:22:28;;;;;;;1.20;1.10;;;12.50;99.90;;;;;;4970056;28;20207;-76
2020/12/23 08:25:04;;;;;;;1.40;1.20;;;12.50;99.90;;;;;;4972734;28;20660;-76
2020/12/23 08:27:31;;;;;;;1.40;1.15;;;12.60;99.90;;;;;;4972298;28;20219;-77
2020/12/23 08:29:59;;;;;;;2.55;1.10;;;12.70;99.90;;;;;;4972984;28;20262;-77
2020/12/23 08:32:28;;;;;;;1.20;1.10;;;12.70;99.90;;;;;;4969327;28;20223;-76
2020/12/23 08:34:58;;;;;;;1.33;1.20;;;12.70;99.90;;;;;;4968420;28;20652;-76
2020/12/23 08:37:25;;;;;;;1.60;1.20;;;12.80;99.90;;;;;;4971484;28;20197;-76
2020/12/23 08:39:55;;;;;;;2.10;1.33;;;12.80;99.90;;;;;;4969954;28;20207;-76
2020/12/23 08:42:22;;;;;;;1.42;1.05;;;12.80;99.90;;;;;;4970252;28;20199;-76
2020/12/23 08:44:50;;;;;;;1.42;1.30;;;12.90;99.90;;;;;;4970806;28;20203;-77
2020/12/23 08:47:26;;;;;;;1.77;1.20;;;12.90;99.90;;;;;;4970197;28;20271;-77
2020/12/23 08:49:54;;;;;;;1.30;1.10;;;12.90;99.90;;;;;;4970753;28;20654;-76
2020/12/23 08:52:22;;;;;;;1.20;1.10;;;13.00;99.90;;;;;;4969058;28;20208;-77
2020/12/23 08:54:49;;;;;;;1.25;1.10;;;13.00;99.90;;;;;;4969779;28;20587;-76
2020/12/23 08:57:17;;;;;;;1.40;1.20;;;13.10;99.90;;;;;;4969636;28;20204;-77
2020/12/23 08:59:43;;;;;;;1.35;1.25;;;13.10;99.90;;;;;;4969921;28;20204;-77
2020/12/23 09:02:11;;;;;;;1.92;1.83;;;13.10;99.90;;;;;;4969890;28;20200;-77
2020/12/23 09:04:38;;;;;;;1.60;1.42;;;13.20;99.90;;;;;;4969248;28;20227;-76
2020/12/23 09:07:04;;;;;;;1.30;1.20;;;13.20;99.90;;;;;;4973271;28;20274;-76
2020/12/23 09:09:31;;;;;;;1.13;1.02;;;13.20;99.90;;;;;;4973906;28;20208;-76
2020/12/23 09:11:58;;;;;;;1.23;1.10;;;13.20;99.90;;;;;;4974399;28;20637;-76
2020/12/23 09:14:29;;;;;;;1.90;1.10;;;13.30;99.90;;;;;;4974322;28;20314;-77
2020/12/23 09:16:57;;;;;;;1.08;0.98;;;13.30;99.90;;;;;;4973832;28;20226;-76
2020/12/23 09:19:47;;;;;;;1.67;1.20;;;13.40;99.90;;;;;;4973916;28;20212;-76
2020/12/23 09:22:32;;;;;;;1.50;1.15;;;13.40;99.90;;;;;;4973316;28;20467;-76
2020/12/23 09:25:19;;;;;;;1.42;1.20;;;13.40;99.90;;;;;;4972050;28;20211;-77
2020/12/23 09:27:47;;;;;;;1.75;1.17;;;13.40;99.90;;;;;;4973772;28;20219;-77
2020/12/23 09:30:14;;;;;;;1.20;0.90;;;13.40;99.90;;;;;;4973961;28;20684;-76
2020/12/23 09:32:53;;;;;;;1.30;1.20;;;13.40;99.90;;;;;;4973856;28;20243;-76
2020/12/23 09:35:23;;;;;;;3.53;1.10;;;13.50;99.90;;;;;;4974670;28;20663;-77
2020/12/23 09:37:50;;;;;;;1.45;1.20;;;13.50;99.90;;;;;;4975060;28;20218;-77
2020/12/23 09:40:16;;;;;;;1.80;1.48;;;13.60;99.90;;;;;;4973308;28;20600;-77
2020/12/23 09:42:43;;;;;;;1.20;1.10;;;13.60;99.90;;;;;;4971747;28;20308;-77
2020/12/23 09:45:11;;;;;;;1.10;1.00;;;13.70;99.90;;;;;;4972762;28;20646;-76
2020/12/23 09:47:42;;;;;;;1.75;1.00;;;13.70;99.90;;;;;;4972586;28;20235;-76
2020/12/23 09:50:08;;;;;;;1.10;0.80;;;13.70;99.90;;;;;;4971975;28;20539;-77
2020/12/23 09:52:36;;;;;;;1.45;1.10;;;13.70;99.90;;;;;;4970730;28;20199;-77
2020/12/23 09:55:02;;;;;;;1.17;1.08;;;13.80;99.90;;;;;;4966469;28;20211;-76
2020/12/23 09:57:28;;;;;;;1.25;1.15;;;13.80;99.90;;;;;;4970303;28;20200;-76
2020/12/23 09:59:54;;;;;;;1.40;1.20;;;13.80;99.90;;;;;;4970647;28;20211;-76
2020/12/23 10:02:21;;;;;;;3.03;1.23;;;13.80;99.90;;;;;;4968680;28;20207;-76
2020/12/23 10:04:47;;;;;;;1.38;1.27;;;13.80;99.90;;;;;;4966905;28;20208;-76
2020/12/23 10:07:13;;;;;;;1.77;1.45;;;13.80;99.90;;;;;;4970465;28;20224;-76
2020/12/23 10:09:40;;;;;;;1.37;1.10;;;13.80;99.90;;;;;;4970849;28;20214;-76
2020/12/23 10:12:06;;;;;;;3.40;1.40;;;13.80;99.90;;;;;;4959249;28;20843;-77
2020/12/23 10:14:33;;;;;;;3.22;1.40;;;13.80;99.90;;;;;;4963943;28;20509;-77
2020/12/23 10:16:59;;;;;;;2.13;1.20;;;13.90;99.90;;;;;;4969843;28;20278;-77
2020/12/23 10:19:25;;;;;;;1.98;1.20;;;13.90;99.90;;;;;;4970167;28;20455;-77
2020/12/23 10:21:51;;;;;;;4.13;1.17;;;13.90;99.90;;;;;;4970155;28;20215;-77
2020/12/23 10:24:17;;;;;;;1.43;1.20;;;14.00;99.90;;;;;;4970889;28;20502;-76
2020/12/23 10:26:44;;;;;;;3.03;1.40;;;14.00;99.90;;;;;;4970252;28;21121;-77
2020/12/23 10:29:11;;;;;;;4.30;1.23;;;14.10;99.90;;;;;;4970490;28;20498;-77
2020/12/23 10:31:37;;;;;;;1.98;1.10;;;14.10;99.90;;;;;;4970416;28;20925;-76
2020/12/23 10:34:03;;;;;;;1.35;1.13;;;14.10;99.90;;;;;;4970384;28;20227;-77
2020/12/23 10:36:29;;;;;;;1.57;1.30;;;14.10;99.90;;;;;;4970143;28;20212;-76
2020/12/23 10:38:56;;;;;;;1.23;1.10;;;14.10;99.90;;;;;;4971159;28;20818;-76
2020/12/23 10:41:22;;;;;;;1.73;1.20;;;14.10;99.90;;;;;;4971511;28;20577;-76
2020/12/23 10:43:49;;;;;;;1.90;1.30;;;14.10;99.90;;;;;;4972703;28;20483;-77
2020/12/23 10:46:15;;;;;;;1.70;1.47;;;14.20;99.90;;;;;;4974007;28;20637;-77
2020/12/23 10:48:42;;;;;;;1.63;1.50;;;14.20;99.90;;;;;;4973676;28;20498;-77
2020/12/23 10:51:08;;;;;;;1.23;1.07;;;14.30;99.90;;;;;;4974873;28;20554;-77
2020/12/23 10:53:36;;;;;;;3.07;1.27;;;14.40;99.90;;;;;;4973390;28;20490;-76
2020/12/23 10:56:02;;;;;;;1.30;1.20;;;14.60;99.90;;;;;;4972870;28;20459;-77
2020/12/23 10:58:29;;;;;;;1.33;1.23;;;14.60;99.90;;;;;;4973841;28;20547;-77
2020/12/23 11:00:56;;;;;;;1.17;1.07;;;14.60;99.90;;;;;;4973654;28;20471;-77
2020/12/23 11:03:22;;;;;;;2.70;1.30;;;14.60;99.90;;;;;;4973439;28;20519;-77
2020/12/23 11:05:49;;;;;;;2.73;1.03;;;14.60;99.90;;;;;;4973155;28;20531;-77
2020/12/23 11:08:16;;;;;;;1.70;1.30;;;14.50;99.90;;;;;;4972488;28;20577;-76
2020/12/23 11:10:42;;;;;;;1.07;0.90;;;14.50;99.90;;;;;;4972160;28;20459;-77
2020/12/23 11:13:08;;;;;;;1.13;1.03;;;14.70;99.90;;;;;;4971661;28;20876;-77
2020/12/23 11:15:35;;;;;;;1.40;1.30;;;14.70;99.90;;;;;;4973005;28;21026;-77
2020/12/23 11:18:02;;;;;;;1.20;1.10;;;14.80;99.90;;;;;;4971724;28;20530;-78
2020/12/23 11:20:28;;;;;;;1.70;1.17;;;14.80;99.90;;;;;;4972018;28;20471;-77
2020/12/23 11:22:55;;;;;;;1.40;1.00;;;14.80;99.90;;;;;;4970502;28;20482;-77
2020/12/23 11:25:21;;;;;;;1.47;1.07;;;14.70;99.90;;;;;;4971783;28;20474;-77
2020/12/23 11:27:47;;;;;;;1.60;1.33;;;14.60;99.90;;;;;;4971112;28;20483;-77
2020/12/23 11:30:14;;;;;;;2.17;1.60;;;14.50;99.90;;;;;;4971463;28;20459;-77
2020/12/23 11:32:40;;;;;;;2.30;1.40;;;14.40;99.90;;;;;;4968670;28;20606;-76
2020/12/23 11:35:08;;;;;;;1.47;1.30;;;14.40;99.90;;;;;;4970342;28;20473;-77
2020/12/23 11:37:34;;;;;;;1.20;1.10;;;14.40;99.90;;;;;;4970366;28;20463;-76
2020/12/23 11:40:00;;;;;;;1.40;1.23;;;14.40;99.90;;;;;;4969172;28;21344;-76
2020/12/23 11:42:27;;;;;;;2.17;1.00;;;14.30;99.90;;;;;;4968975;28;20487;-76
2020/12/23 11:44:53;;;;;;;1.20;1.10;;;14.40;99.90;;;;;;4968926;28;20490;-77
2020/12/23 11:47:19;;;;;;;4.40;1.40;;;14.30;99.90;;;;;;4969124;28;20912;-77
2020/12/23 11:49:46;;;;;;;1.60;1.20;;;14.40;99.90;;;;;;4969556;28;20467;-76
2020/12/23 11:52:13;;;;;;;1.10;1.00;;;14.40;99.90;;;;;;4968691;28;20459;-77
2020/12/23 11:54:39;;;;;;;1.83;1.37;;;14.30;99.90;;;;;;4968567;28;20482;-77
2020/12/23 11:57:05;;;;;;;2.07;1.00;;;14.20;99.90;;;;;;4964383;28;20550;-77
2020/12/23 11:59:32;;;;;;;1.33;1.10;;;14.20;99.90;;;;;;4967992;28;20471;-76
2020/12/23 12:01:58;;;;;;;1.80;1.00;;;14.20;99.90;;;;;;4963204;28;20474;-77
2020/12/23 12:04:24;;;;;;;1.80;1.70;;;14.20;99.90;;;;;;4966828;28;20486;-77
2020/12/23 12:06:56;;;;;;;1.27;1.17;;;14.30;99.90;;;;;;4966928;28;20211;-76
2020/12/23 12:09:23;;;;;;;1.63;1.40;;;14.20;99.90;;;;;;4966094;28;21073;-76
2020/12/23 12:11:53;;;;;;;1.63;1.30;;;14.30;99.90;;;;;;4965466;28;20469;-76
2020/12/23 12:14:19;;;;;;;1.27;1.17;;;14.30;99.90;;;;;;4966573;28;20490;-75
2020/12/23 12:16:46;;;;;;;1.60;1.17;;;14.40;99.90;;;;;;4964915;28;20977;-74
2020/12/23 12:19:12;;;;;;;1.25;1.13;;;14.40;99.90;;;;;;4965463;28;20522;-75
2020/12/23 12:21:39;;;;;;;1.20;1.10;;;14.40;99.90;;;;;;4964634;28;20230;-75
2020/12/23 12:24:05;;;;;;;1.50;1.30;;;14.40;99.90;;;;;;4964717;28;21231;-75
2020/12/23 12:26:33;;;;;;;1.30;1.10;;;14.50;99.90;;;;;;4965022;28;20525;-75
2020/12/23 12:29:00;;;;;;;1.35;1.10;;;14.50;99.90;;;;;;4965550;28;20295;-74
2020/12/23 12:31:28;;;;;;;1.10;1.00;;;14.50;99.90;;;;;;4965099;28;20232;-75
2020/12/23 12:33:54;;;;;;;1.20;1.00;;;14.50;99.90;;;;;;4963342;28;20483;-75
2020/12/23 12:36:21;;;;;;;1.20;1.10;;;14.50;99.90;;;;;;4965929;28;20943;-74
2020/12/23 12:38:47;;;;;;;1.10;1.00;;;14.50;99.90;;;;;;4963479;28;20487;-75
2020/12/23 12:41:13;;;;;;;2.43;1.40;;;14.50;99.90;;;;;;4964927;28;20889;-75
2020/12/23 12:43:40;;;;;;;1.23;1.13;;;14.50;99.90;;;;;;4967933;28;21822;-76
2020/12/23 12:46:09;;;;;;;1.73;1.00;;;14.50;99.90;;;;;;4965493;28;20467;-75
2020/12/23 12:48:36;;;;;;;1.50;1.20;;;14.50;99.90;;;;;;4968133;28;20710;-75
2020/12/23 12:51:02;;;;;;;1.53;1.17;;;14.60;99.90;;;;;;4968373;28;20800;-75
2020/12/23 12:53:28;;;;;;;1.70;1.23;;;14.60;99.90;;;;;;4967495;28;20594;-75
2020/12/23 12:55:54;;;;;;;1.10;1.00;;;14.60;99.90;;;;;;4964361;28;20481;-72
2020/12/23 12:58:20;;;;;;;1.27;1.17;;;14.60;99.90;;;;;;4965611;28;20603;-74
2020/12/23 13:00:47;;;;;;;1.30;1.20;;;14.60;99.90;;;;;;4963736;28;20463;-74